createdAt,value
2023-05-13T00:02:02.268Z,0.85
2023-05-13T00:04:29.108Z,0.47
2023-05-13T00:06:57.671Z,0.68
2023-05-13T00:09:24.414Z,0.50
2023-05-13T00:11:51.173Z,0.70
2023-05-13T00:14:17.992Z,1.50
2023-05-13T00:16:44.940Z,0.77
2023-05-13T00:19:12.468Z,0.70
2023-05-13T00:21:39.421Z,0.90
2023-05-13T00:24:06.555Z,0.80
2023-05-13T00:26:33.433Z,0.88
2023-05-13T00:29:00.654Z,1.77
2023-05-13T00:31:27.599Z,0.80
2023-05-13T00:33:54.439Z,0.60
2023-05-13T00:36:21.236Z,1.10
2023-05-13T00:38:48.022Z,1.00
2023-05-13T00:41:15.132Z,1.10
2023-05-13T00:43:41.863Z,1.17
2023-05-13T00:46:08.779Z,0.93
2023-05-13T00:48:35.665Z,0.73
2023-05-13T00:51:02.524Z,0.80
2023-05-13T00:53:32.344Z,1.00
2023-05-13T00:55:59.176Z,0.80
2023-05-13T00:58:26.001Z,0.70
2023-05-13T01:01:34.243Z,0.75
2023-05-13T01:04:13.673Z,0.82
2023-05-13T01:07:00.781Z,1.02
2023-05-13T01:09:46.221Z,0.90
2023-05-13T01:12:21.632Z,1.80
2023-05-13T01:15:09.577Z,1.77
2023-05-13T01:17:54.908Z,1.10
2023-05-13T01:20:23.768Z,1.10
2023-05-13T01:22:51.415Z,0.82
2023-05-13T01:25:18.352Z,1.10
2023-05-13T01:27:45.331Z,1.20
2023-05-13T01:30:12.969Z,1.10
2023-05-13T01:32:40.390Z,0.82
2023-05-13T01:35:09.054Z,1.13
2023-05-13T01:37:37.229Z,0.88
2023-05-13T01:40:17.032Z,1.40
2023-05-13T01:42:44.180Z,1.55
2023-05-13T01:45:11.496Z,1.05
2023-05-13T01:47:38.338Z,1.30
2023-05-13T01:50:05.676Z,1.02
2023-05-13T01:52:32.582Z,0.73
2023-05-13T01:54:59.958Z,1.10
2023-05-13T01:57:26.686Z,0.80
2023-05-13T01:59:53.442Z,0.73
2023-05-13T02:02:20.357Z,0.65
2023-05-13T02:04:47.393Z,0.75
2023-05-13T02:07:14.174Z,0.93
2023-05-13T02:09:40.884Z,0.88
2023-05-13T02:12:08.804Z,0.90
2023-05-13T02:14:35.586Z,0.70
2023-05-13T02:17:03.302Z,0.65
2023-05-13T02:19:30.126Z,0.80
2023-05-13T02:21:56.899Z,0.80
2023-05-13T02:24:23.738Z,0.80
2023-05-13T02:26:50.464Z,0.90
2023-05-13T02:29:17.219Z,0.60
2023-05-13T02:31:43.983Z,1.25
2023-05-13T02:34:10.894Z,1.00
2023-05-13T02:36:37.662Z,0.90
2023-05-13T02:39:04.537Z,1.30
2023-05-13T02:41:31.298Z,1.10
2023-05-13T02:43:58.121Z,1.15
2023-05-13T02:46:24.973Z,1.00
2023-05-13T02:48:51.831Z,0.85
2023-05-13T02:51:18.601Z,1.30
2023-05-13T02:53:45.342Z,2.00
2023-05-13T02:56:12.113Z,1.42
2023-05-13T02:58:38.893Z,1.10
2023-05-13T03:01:05.977Z,2.70
2023-05-13T03:03:33.112Z,1.40
2023-05-13T03:06:00.151Z,1.30
2023-05-13T03:08:26.903Z,1.20
2023-05-13T03:10:53.674Z,1.35
2023-05-13T03:13:20.474Z,1.17
2023-05-13T03:15:47.272Z,1.08
2023-05-13T03:18:14.008Z,2.13
2023-05-13T03:20:40.773Z,1.10
2023-05-13T03:23:07.691Z,1.10
2023-05-13T03:25:34.528Z,1.13
2023-05-13T03:28:02.591Z,1.38
2023-05-13T03:30:29.600Z,0.93
2023-05-13T03:32:56.562Z,1.05
2023-05-13T03:35:23.469Z,0.70
2023-05-13T03:37:50.209Z,0.80
2023-05-13T03:40:16.998Z,0.63
2023-05-13T03:42:43.768Z,0.82
2023-05-13T03:45:11.545Z,0.77
2023-05-13T03:47:41.325Z,1.33
2023-05-13T03:50:08.953Z,2.40
2023-05-13T03:52:35.702Z,0.70
2023-05-13T03:55:02.741Z,2.25
2023-05-13T03:57:29.530Z,1.40
2023-05-13T03:59:56.282Z,0.90
2023-05-13T04:02:24.240Z,1.10
2023-05-13T04:04:51.228Z,1.15
2023-05-13T04:07:18.054Z,1.33
2023-05-13T04:09:44.786Z,1.10
2023-05-13T04:12:11.618Z,1.70
2023-05-13T04:14:38.455Z,1.00
2023-05-13T04:17:05.522Z,1.35
2023-05-13T04:19:32.394Z,1.67
2023-05-13T04:21:59.163Z,1.42
2023-05-13T04:24:25.906Z,1.20
2023-05-13T04:26:52.670Z,1.20
2023-05-13T04:29:19.398Z,1.08
2023-05-13T04:31:46.366Z,1.50
2023-05-13T04:34:13.230Z,1.58
2023-05-13T04:36:40.014Z,1.17
2023-05-13T04:39:06.788Z,1.40
2023-05-13T04:41:33.557Z,1.33
2023-05-13T04:44:00.332Z,0.90
2023-05-13T04:46:27.201Z,1.08
2023-05-13T04:48:54.107Z,1.00
2023-05-13T04:51:21.365Z,0.80
2023-05-13T04:53:48.500Z,1.17
2023-05-13T04:56:16.702Z,1.25
2023-05-13T04:58:43.604Z,1.23
2023-05-13T05:01:10.479Z,1.00
2023-05-13T05:03:37.356Z,1.23
2023-05-13T05:06:04.132Z,0.80
2023-05-13T05:08:30.893Z,0.70
2023-05-13T05:10:57.669Z,0.80
2023-05-13T05:13:24.479Z,0.63
2023-05-13T05:15:51.275Z,0.60
2023-05-13T05:18:18.078Z,1.00
2023-05-13T05:20:45.032Z,0.52
2023-05-13T05:23:11.898Z,0.50
2023-05-13T05:25:38.774Z,0.60
2023-05-13T05:28:05.633Z,0.70
2023-05-13T05:30:39.411Z,0.50
2023-05-13T05:33:07.803Z,0.80
2023-05-13T05:35:37.311Z,0.60
2023-05-13T05:38:08.822Z,0.70
2023-05-13T05:40:39.494Z,1.17
2023-05-13T05:43:07.285Z,0.95
2023-05-13T05:45:40.602Z,0.80
2023-05-13T05:48:07.781Z,0.80
2023-05-13T05:50:35.530Z,0.80
2023-05-13T05:53:03.101Z,0.70
2023-05-13T05:55:31.739Z,0.75
2023-05-13T05:58:03.926Z,1.10
2023-05-13T06:00:31.164Z,0.68
2023-05-13T06:02:58.835Z,1.50
2023-05-13T06:05:26.089Z,0.60
2023-05-13T06:07:53.298Z,0.70
2023-05-13T06:10:20.389Z,0.70
2023-05-13T06:12:47.404Z,0.55
2023-05-13T06:15:14.164Z,0.70
2023-05-13T06:17:41.220Z,0.93
2023-05-13T06:20:08.716Z,0.50
2023-05-13T06:22:35.891Z,0.60
2023-05-13T06:25:03.104Z,0.70
2023-05-13T06:27:29.901Z,0.98
2023-05-13T06:29:56.680Z,0.82
2023-05-13T06:32:23.436Z,1.17
2023-05-13T06:34:53.973Z,1.10
2023-05-13T06:37:22.958Z,0.90
2023-05-13T06:39:50.459Z,1.02
2023-05-13T06:42:17.761Z,1.45
2023-05-13T06:44:45.038Z,1.17
2023-05-13T06:47:15.967Z,1.33
2023-05-13T06:49:43.348Z,1.05
2023-05-13T06:52:10.921Z,1.77
2023-05-13T06:54:38.165Z,1.02
2023-05-13T06:57:06.853Z,1.20
2023-05-13T06:59:34.156Z,1.73
2023-05-13T07:02:01.391Z,1.42
2023-05-13T07:04:30.282Z,2.63
2023-05-13T07:06:58.025Z,1.98
2023-05-13T07:09:25.256Z,2.03
2023-05-13T07:11:52.539Z,2.58
2023-05-13T07:14:20.094Z,2.25
2023-05-13T07:16:47.320Z,2.00
2023-05-13T07:19:14.678Z,1.88
2023-05-13T07:21:41.955Z,1.98
2023-05-13T07:24:09.497Z,2.03
2023-05-13T07:26:37.215Z,2.75
2023-05-13T07:29:04.413Z,1.80
2023-05-13T07:31:31.672Z,1.85
2023-05-13T07:33:58.903Z,2.22
2023-05-13T07:36:26.163Z,2.08
2023-05-13T07:38:53.615Z,1.58
2023-05-13T07:41:21.587Z,1.90
2023-05-13T07:43:48.837Z,2.72
2023-05-13T07:46:16.208Z,1.85
2023-05-13T07:48:43.464Z,2.25
2023-05-13T07:51:10.715Z,2.20
2023-05-13T07:53:38.008Z,2.33
2023-05-13T07:56:05.397Z,2.95
2023-05-13T07:58:32.624Z,2.72
2023-05-13T08:00:59.829Z,2.22
2023-05-13T08:03:27.248Z,2.40
2023-05-13T08:05:54.542Z,2.67
2023-05-13T08:08:21.804Z,2.60
2023-05-13T08:10:49.072Z,3.20
2023-05-13T08:13:16.284Z,2.25
2023-05-13T08:15:43.572Z,1.70
2023-05-13T08:18:10.890Z,2.50
2023-05-13T08:20:38.247Z,2.42
2023-05-13T08:23:06.252Z,2.20
2023-05-13T08:25:33.515Z,2.25
2023-05-13T08:28:00.781Z,2.05
2023-05-13T08:30:27.983Z,1.67
2023-05-13T08:32:55.419Z,1.95
2023-05-13T08:35:22.980Z,2.70
2023-05-13T08:37:50.391Z,4.72
2023-05-13T08:40:18.581Z,1.50
2023-05-13T08:42:47.792Z,1.30
2023-05-13T08:45:15.855Z,1.60
2023-05-13T08:47:43.331Z,2.08
2023-05-13T08:50:11.077Z,2.33
2023-05-13T08:52:38.297Z,1.67
2023-05-13T08:55:07.062Z,7.45
2023-05-13T08:57:34.272Z,2.55
2023-05-13T09:00:01.508Z,1.80
2023-05-13T09:02:28.894Z,2.05
2023-05-13T09:04:57.050Z,1.95
2023-05-13T09:07:24.556Z,1.83
2023-05-13T09:09:52.023Z,2.28
2023-05-13T09:12:37.760Z,2.03
2023-05-13T09:15:09.835Z,3.92
2023-05-13T09:17:44.152Z,2.05
2023-05-13T09:20:12.361Z,2.88
2023-05-13T09:22:46.554Z,4.22
2023-05-13T09:25:14.644Z,1.98
2023-05-13T09:27:43.295Z,1.20
2023-05-13T09:30:11.335Z,1.55
2023-05-13T09:32:39.245Z,2.20
2023-05-13T09:35:16.917Z,2.67
2023-05-13T09:37:47.943Z,1.45
2023-05-13T09:40:16.917Z,2.05
2023-05-13T09:42:45.071Z,2.47
2023-05-13T09:45:13.110Z,2.10
2023-05-13T09:47:40.995Z,2.30
2023-05-13T09:50:09.286Z,2.20
2023-05-13T09:52:37.609Z,2.03
2023-05-13T09:55:05.475Z,2.67
2023-05-13T09:57:33.108Z,2.58
2023-05-13T10:00:01.032Z,2.25
2023-05-13T10:02:28.964Z,1.90
2023-05-13T10:04:57.116Z,2.65
2023-05-13T10:07:25.692Z,2.90
2023-05-13T10:09:54.517Z,2.78
2023-05-13T10:12:22.791Z,2.20
2023-05-13T10:14:54.039Z,2.08
2023-05-13T10:17:22.056Z,2.17
2023-05-13T10:19:50.443Z,1.98
2023-05-13T10:22:26.202Z,1.80
2023-05-13T10:24:53.771Z,1.70
2023-05-13T10:27:22.737Z,1.45
2023-05-13T10:29:53.111Z,1.70
2023-05-13T10:32:20.351Z,1.90
2023-05-13T10:34:47.834Z,1.75
2023-05-13T10:37:23.302Z,1.98
2023-05-13T10:40:02.601Z,1.50
2023-05-13T10:42:32.657Z,2.45
2023-05-13T10:44:59.998Z,2.72
2023-05-13T10:47:27.916Z,2.40
2023-05-13T10:49:55.348Z,1.98
2023-05-13T10:52:22.595Z,1.85
2023-05-13T10:55:16.708Z,1.88
2023-05-13T10:58:03.921Z,1.65
2023-05-13T11:00:31.964Z,1.92
2023-05-13T11:03:09.643Z,2.55
2023-05-13T11:05:39.285Z,2.10
2023-05-13T11:08:06.800Z,2.00
2023-05-13T11:10:34.028Z,2.03
2023-05-13T11:13:16.677Z,1.52
2023-05-13T11:15:45.063Z,3.22
2023-05-13T11:18:15.804Z,1.77
2023-05-13T11:20:52.557Z,1.60
2023-05-13T11:23:21.342Z,2.00
2023-05-13T11:26:11.272Z,2.00
2023-05-13T11:28:55.647Z,1.70
2023-05-13T11:31:23.715Z,1.85
2023-05-13T11:34:26.341Z,2.30
2023-05-13T11:37:13.887Z,1.70
2023-05-13T11:39:41.865Z,1.73
2023-05-13T11:42:09.873Z,2.05
2023-05-13T11:44:37.621Z,1.75
2023-05-13T11:47:06.223Z,2.00
2023-05-13T11:49:33.574Z,1.67
2023-05-13T11:52:04.763Z,1.70
2023-05-13T11:54:32.047Z,1.50
2023-05-13T11:56:59.274Z,1.65
2023-05-13T11:59:31.164Z,1.63
2023-05-13T12:02:03.572Z,3.95
2023-05-13T12:04:31.315Z,2.50
2023-05-13T12:06:58.898Z,2.75
2023-05-13T12:09:26.307Z,3.63
2023-05-13T12:11:54.238Z,2.15
2023-05-13T12:14:21.789Z,1.65
2023-05-13T12:16:49.278Z,1.95
2023-05-13T12:19:16.740Z,2.00
2023-05-13T12:21:44.570Z,3.90
2023-05-13T12:24:21.710Z,3.97
2023-05-13T12:26:49.262Z,2.33
2023-05-13T12:29:16.680Z,2.90
2023-05-13T12:31:44.776Z,2.17
2023-05-13T12:34:12.034Z,2.50
2023-05-13T12:36:39.963Z,1.75
2023-05-13T12:39:11.073Z,1.95
2023-05-13T12:41:39.305Z,2.92
2023-05-13T12:44:10.532Z,2.20
2023-05-13T12:46:38.346Z,2.50
2023-05-13T12:49:06.457Z,2.13
2023-05-13T12:51:34.258Z,1.42
2023-05-13T12:54:01.732Z,1.38
2023-05-13T12:56:29.036Z,1.13
2023-05-13T12:58:56.480Z,2.70
2023-05-13T13:01:23.778Z,1.17
2023-05-13T13:03:51.341Z,1.35
2023-05-13T13:06:18.911Z,1.27
2023-05-13T13:08:46.382Z,1.58
2023-05-13T13:11:18.528Z,1.45
2023-05-13T13:13:46.592Z,1.05
2023-05-13T13:16:14.149Z,0.70
2023-05-13T13:18:41.776Z,0.77
2023-05-13T13:21:09.219Z,1.00
2023-05-13T13:23:36.415Z,1.33
2023-05-13T13:26:04.003Z,1.42
2023-05-13T13:28:31.815Z,1.33
2023-05-13T13:31:00.018Z,1.65
2023-05-13T13:33:27.420Z,3.25
2023-05-13T13:35:54.644Z,1.83
2023-05-13T13:38:21.849Z,1.83
2023-05-13T13:40:49.085Z,1.58
2023-05-13T13:43:16.340Z,1.50
2023-05-13T13:45:43.579Z,2.08
2023-05-13T13:48:10.989Z,1.88
2023-05-13T13:50:38.266Z,2.25
2023-05-13T13:53:05.542Z,1.77
2023-05-13T13:55:32.800Z,4.47
2023-05-13T13:58:00.034Z,4.60
2023-05-13T14:00:27.246Z,1.77
2023-05-13T14:02:54.648Z,4.10
2023-05-13T14:05:21.983Z,1.83
2023-05-13T14:07:53.739Z,1.40
2023-05-13T14:10:21.227Z,1.48
2023-05-13T14:12:48.620Z,1.40
2023-05-13T14:15:15.832Z,1.10
2023-05-13T14:17:43.232Z,1.45
2023-05-13T14:20:12.061Z,0.80
2023-05-13T14:22:39.426Z,1.13
2023-05-13T14:25:06.875Z,0.80
2023-05-13T14:27:36.398Z,1.23
2023-05-13T14:30:03.867Z,0.70
2023-05-13T14:32:31.126Z,0.73
2023-05-13T14:34:58.360Z,0.70
2023-05-13T14:37:25.661Z,0.60
2023-05-13T14:39:52.923Z,0.52
2023-05-13T14:42:21.143Z,0.45
2023-05-13T14:44:48.340Z,0.40
2023-05-13T14:47:15.913Z,0.85
2023-05-13T14:49:43.175Z,0.35
2023-05-13T14:52:10.424Z,0.32
2023-05-13T14:54:38.294Z,0.50
2023-05-13T14:57:06.796Z,0.70
2023-05-13T14:59:34.354Z,0.63
2023-05-13T15:02:04.455Z,0.73
2023-05-13T15:04:31.837Z,0.57
2023-05-13T15:06:59.322Z,0.60
2023-05-13T15:09:26.561Z,1.10
2023-05-13T15:11:53.778Z,0.70
2023-05-13T15:14:25.795Z,0.55
2023-05-13T15:16:53.475Z,1.08
2023-05-13T15:19:20.794Z,1.00
2023-05-13T15:21:48.063Z,2.08
2023-05-13T15:24:15.308Z,1.08
2023-05-13T15:26:43.204Z,1.00
2023-05-13T15:29:10.481Z,0.95
2023-05-13T15:31:37.734Z,1.10
2023-05-13T15:34:05.030Z,0.73
2023-05-13T15:36:34.535Z,1.00
2023-05-13T15:39:02.698Z,0.52
2023-05-13T15:41:30.066Z,0.73
2023-05-13T15:43:57.282Z,0.60
2023-05-13T15:46:24.626Z,0.82
2023-05-13T15:48:51.855Z,0.88
2023-05-13T15:51:19.099Z,0.65
2023-05-13T15:53:46.621Z,0.80
2023-05-13T15:56:13.846Z,0.70
2023-05-13T15:58:41.076Z,1.33
2023-05-13T16:01:08.328Z,0.80
2023-05-13T16:03:37.860Z,0.75
2023-05-13T16:06:05.881Z,0.60
2023-05-13T16:08:33.135Z,0.60
2023-05-13T16:11:00.329Z,0.82
2023-05-13T16:13:27.550Z,1.98
2023-05-13T16:15:54.889Z,1.15
2023-05-13T16:18:22.144Z,1.30
2023-05-13T16:20:49.360Z,1.30
2023-05-13T16:23:16.661Z,1.60
2023-05-13T16:25:44.112Z,1.10
2023-05-13T16:28:11.450Z,3.17
2023-05-13T16:30:39.518Z,1.25
2023-05-13T16:33:08.079Z,1.60
2023-05-13T16:35:35.673Z,1.58
2023-05-13T16:38:03.588Z,1.10
2023-05-13T16:40:30.808Z,1.50
2023-05-13T16:43:01.012Z,1.08
2023-05-13T16:45:29.942Z,1.20
2023-05-13T16:47:57.445Z,1.10
2023-05-13T16:50:25.016Z,1.23
2023-05-13T16:52:54.436Z,1.50
2023-05-13T16:55:22.515Z,2.45
2023-05-13T16:57:49.795Z,2.35
2023-05-13T17:00:17.170Z,1.65
2023-05-13T17:02:44.639Z,1.88
2023-05-13T17:05:12.000Z,1.83
2023-05-13T17:07:39.580Z,1.48
2023-05-13T17:10:07.196Z,1.45
2023-05-13T17:12:34.420Z,2.08
2023-05-13T17:15:01.848Z,1.88
2023-05-13T17:17:29.089Z,1.55
2023-05-13T17:19:56.438Z,1.33
2023-05-13T17:22:23.822Z,1.40
2023-05-13T17:24:51.072Z,1.50
2023-05-13T17:27:18.325Z,1.80
2023-05-13T17:29:45.606Z,1.70
2023-05-13T17:32:12.852Z,1.45
2023-05-13T17:34:40.174Z,1.48
2023-05-13T17:37:07.456Z,1.73
2023-05-13T17:39:34.659Z,1.40
2023-05-13T17:42:01.866Z,1.60
2023-05-13T17:44:29.265Z,2.08
2023-05-13T17:46:56.519Z,1.40
2023-05-13T17:49:23.698Z,1.67
2023-05-13T17:51:51.271Z,1.50
2023-05-13T17:54:18.462Z,2.83
2023-05-13T17:56:45.640Z,2.75
2023-05-13T17:59:12.909Z,3.30
2023-05-13T18:01:40.237Z,1.58
2023-05-13T18:04:07.504Z,2.03
2023-05-13T18:28:21.365Z,6.65
2023-05-13T18:30:48.560Z,5.00
2023-05-13T18:33:19.860Z,3.13
2023-05-13T18:35:47.123Z,3.63
2023-05-13T18:38:14.339Z,4.18
2023-05-13T18:40:41.576Z,3.45
2023-05-13T18:43:08.845Z,3.20
2023-05-13T18:45:36.175Z,4.18
2023-05-13T18:48:03.495Z,2.80
2023-05-13T18:50:30.797Z,3.35
2023-05-13T18:52:58.107Z,2.75
2023-05-13T18:55:25.334Z,7.20
2023-05-13T18:57:52.648Z,5.85
2023-05-13T19:00:20.095Z,6.57
2023-05-13T19:02:47.550Z,5.00
2023-05-13T19:05:14.964Z,4.18
2023-05-13T19:07:42.166Z,4.53
2023-05-13T19:10:09.453Z,3.17
2023-05-13T19:12:36.691Z,6.05
2023-05-13T19:15:04.071Z,2.85
2023-05-13T19:17:31.367Z,4.40
2023-05-13T19:20:00.365Z,4.68
2023-05-13T19:22:27.763Z,3.83
2023-05-13T19:24:55.031Z,4.82
2023-05-13T19:27:22.417Z,5.45
2023-05-13T19:29:49.641Z,3.92
2023-05-13T19:32:17.404Z,3.30
2023-05-13T19:34:44.648Z,3.80
2023-05-13T19:37:11.828Z,3.35
2023-05-13T19:39:39.028Z,3.13
2023-05-13T19:42:06.400Z,3.53
2023-05-13T19:44:34.082Z,3.70
2023-05-13T19:47:01.404Z,3.03
2023-05-13T19:49:28.716Z,4.60
2023-05-13T19:51:56.046Z,2.80
2023-05-13T19:54:23.262Z,3.58
2023-05-13T19:56:50.645Z,3.60
2023-05-13T19:59:17.910Z,4.15
2023-05-13T20:01:45.164Z,3.60
2023-05-13T20:04:12.522Z,4.07
2023-05-13T20:06:39.757Z,4.15
2023-05-13T20:09:07.135Z,4.60
2023-05-13T20:11:34.368Z,4.25
2023-05-13T20:14:01.884Z,4.85
2023-05-13T20:16:29.117Z,3.10
2023-05-13T20:18:56.410Z,3.25
2023-05-13T20:21:23.683Z,3.47
2023-05-13T20:23:50.995Z,2.95
2023-05-13T20:26:18.251Z,3.63
2023-05-13T20:28:47.709Z,2.50
2023-05-13T20:31:15.145Z,5.13
2023-05-13T20:33:42.532Z,5.55
2023-05-13T20:36:09.727Z,3.13
2023-05-13T20:38:37.006Z,3.25
2023-05-13T20:41:04.249Z,2.47
2023-05-13T20:43:32.412Z,2.55
2023-05-13T20:45:59.635Z,2.67
2023-05-13T20:48:27.877Z,3.15
2023-05-13T20:51:05.441Z,3.28
2023-05-13T20:53:33.793Z,3.53
2023-05-13T20:56:01.074Z,3.20
2023-05-13T20:58:28.294Z,2.42
2023-05-13T21:00:55.572Z,2.92
2023-05-13T21:03:22.970Z,4.85
2023-05-13T21:05:50.347Z,2.60
2023-05-13T21:08:17.644Z,4.07
2023-05-13T21:10:44.890Z,3.53
2023-05-13T21:13:12.112Z,4.55
2023-05-13T21:15:39.464Z,3.20
2023-05-13T21:18:06.788Z,4.07
2023-05-13T21:20:34.048Z,2.83
2023-05-13T21:23:01.812Z,2.58
2023-05-13T21:25:29.008Z,3.33
2023-05-13T21:27:56.208Z,2.80
2023-05-13T21:30:23.781Z,3.70
2023-05-13T21:32:51.276Z,2.72
2023-05-13T21:35:19.324Z,3.85
2023-05-13T21:37:47.489Z,3.15
2023-05-13T21:40:15.016Z,4.18
2023-05-13T21:42:42.248Z,2.20
2023-05-13T21:45:09.807Z,6.13
2023-05-13T21:47:37.091Z,2.80
2023-05-13T21:50:04.472Z,2.50
2023-05-13T21:52:31.804Z,2.80
2023-05-13T21:54:59.025Z,2.65
2023-05-13T21:57:26.232Z,3.70
2023-05-13T21:59:53.484Z,2.50
2023-05-13T22:02:20.873Z,2.80
2023-05-13T22:04:48.145Z,4.25
2023-05-13T22:07:15.408Z,3.05
2023-05-13T22:09:42.630Z,3.00
2023-05-13T22:12:09.898Z,2.60
2023-05-13T22:14:37.138Z,3.38
2023-05-13T22:17:09.891Z,3.70
2023-05-13T22:19:37.711Z,2.55
2023-05-13T22:22:05.034Z,3.10
2023-05-13T22:24:32.321Z,2.90
2023-05-13T22:27:00.289Z,2.30
2023-05-13T22:29:28.254Z,2.75
2023-05-13T22:31:57.507Z,3.15
2023-05-13T22:34:24.992Z,3.40
2023-05-13T22:36:52.188Z,2.75
2023-05-13T22:39:20.057Z,3.25
2023-05-13T22:41:47.626Z,2.30
2023-05-13T22:44:14.853Z,2.60
2023-05-13T22:46:42.128Z,2.72
2023-05-13T22:49:10.457Z,2.70
2023-05-13T22:51:37.689Z,7.85
2023-05-13T22:54:04.934Z,3.90
2023-05-13T22:56:32.208Z,4.65
2023-05-13T22:58:59.404Z,3.08
2023-05-13T23:01:26.658Z,3.13
2023-05-13T23:03:53.922Z,2.97
2023-05-13T23:06:21.166Z,2.67
2023-05-13T23:08:48.365Z,3.17
2023-05-13T23:11:15.568Z,3.75
2023-05-13T23:13:42.763Z,2.92
2023-05-13T23:16:10.077Z,2.47
2023-05-13T23:18:37.406Z,3.60
2023-05-13T23:21:04.823Z,2.83
2023-05-13T23:23:32.679Z,2.95
2023-05-13T23:25:59.947Z,2.50
2023-05-13T23:28:27.212Z,4.07
2023-05-13T23:30:54.550Z,2.78
2023-05-13T23:33:21.836Z,6.95
2023-05-13T23:35:55.267Z,2.80
2023-05-13T23:38:22.744Z,3.80
2023-05-13T23:40:50.031Z,3.22
2023-05-13T23:43:17.305Z,2.80
2023-05-13T23:45:44.567Z,2.40
2023-05-13T23:48:11.790Z,2.55
2023-05-13T23:50:39.009Z,3.03
2023-05-13T23:53:06.271Z,2.83
2023-05-13T23:55:33.534Z,2.78
2023-05-13T23:58:00.750Z,2.40
